KDRO/DRO METAR and TAF weather

Enter ICAO airport designator
Station Type Date Time Source
KDRO METAR 2021/08/01 15:53 UTC NOAA

KDRO 011553Z AUTO 00000KT 10SM CLR 19/12 A3044 RMK AO2 SLP231 T01890117 $


Station Type Date Time Source
KDRO Decoded METAR 2021/08/01 15:53 UTC NOAA

DURANGO-LA PLATA COUNTY AIRPORT , CO, United States (KDRO) 37-09N 107-46W 2035M
Aug 01, 2021 - 11:53 AM EDT / 2021.08.01 1553 UTC
Wind: Calm:0
Visibility: 10 mile(s):0
Sky conditions: clear
Temperature: 66.0 F (18.9 C)
Dew Point: 53.1 F (11.7 C)
Relative Humidity: 62%
Pressure (altimeter): 30.44 in. Hg (1030 hPa)
ob: KDRO 011553Z AUTO 00000KT 10SM CLR 19/12 A3044 RMK AO2 SLP231 T01890117
cycle: 16

Station Type Date Time Source
KDRO TAF 2021/08/01 12:42 UTC NOAA

TAF KDRO 011139Z 0112/0212 VRB05KT P6SM FEW110 SCT180
FM011800 16007KT P6SM VCTS SCT070CB BKN100
FM012000 19009KT P6SM VCTS SCT070CB BKN090
TEMPO 0120/0124 VRB15G30KT -TSRA BKN070CB
FM020500 10007KT P6SM VCTS SCT070CB BKN090
FM020800 06006KT P6SM SCT060 BKN080

Example: see airport list